Time;durP1;ratioP1;P1;durP2;ratioP2;P2;SDS_P1;SDS_P2;PMS_P1;PMS_P2;Temp;Humidity;BMP_temperature;BMP_pressure;BME280_temperature;BME280_humidity;BME280_pressure;Samples;Min_cycle;Max_cycle;Signal;HPM_P1;HPM_P2
2022/03/01 00:00:23;;;;;;;22.20;16.95;;;20.30;47.60;;;;;;4971979;28;20035;-72
2022/03/01 00:02:49;;;;;;;22.05;17.73;;;20.30;47.50;;;;;;4972760;28;20034;-72
2022/03/01 00:05:14;;;;;;;21.48;16.95;;;20.30;47.70;;;;;;4971486;28;20030;-71
2022/03/01 00:07:41;;;;;;;20.15;16.08;;;20.30;47.60;;;;;;5003919;28;20117;-72
2022/03/01 00:10:07;;;;;;;19.75;16.65;;;20.30;47.60;;;;;;4972347;28;20615;-72
2022/03/01 00:12:32;;;;;;;21.15;16.48;;;20.30;47.60;;;;;;4972769;28;20086;-72
2022/03/01 00:14:58;;;;;;;20.05;16.08;;;20.30;47.60;;;;;;4972740;28;20054;-72
2022/03/01 00:17:24;;;;;;;21.65;16.35;;;20.30;47.50;;;;;;4970795;28;20495;-72
2022/03/01 00:19:50;;;;;;;20.27;15.80;;;20.20;47.60;;;;;;5002933;28;20033;-72
2022/03/01 00:22:16;;;;;;;21.98;15.93;;;20.30;47.60;;;;;;4972589;28;20027;-72
2022/03/01 00:24:41;;;;;;;20.33;15.60;;;20.30;47.50;;;;;;4972396;28;20391;-73
2022/03/01 00:27:07;;;;;;;21.15;16.63;;;20.30;47.50;;;;;;4972615;28;20035;-72
2022/03/01 00:29:33;;;;;;;20.45;16.52;;;20.30;47.40;;;;;;5002892;28;20038;-73
2022/03/01 00:31:59;;;;;;;19.88;15.23;;;20.30;47.40;;;;;;4987619;28;20030;-72
2022/03/01 00:34:24;;;;;;;20.40;15.38;;;20.30;47.50;;;;;;4972116;28;20118;-73
2022/03/01 00:36:50;;;;;;;20.88;15.68;;;20.30;47.50;;;;;;4971349;28;20046;-72
2022/03/01 00:39:16;;;;;;;18.88;14.93;;;20.30;48.10;;;;;;4972480;28;20030;-72
2022/03/01 00:41:41;;;;;;;19.25;15.63;;;20.20;47.40;;;;;;5003256;28;20051;-72
2022/03/01 00:44:07;;;;;;;20.60;15.60;;;20.30;47.40;;;;;;4972312;28;20484;-73
2022/03/01 00:46:33;;;;;;;17.75;14.38;;;20.30;47.50;;;;;;4972368;28;20399;-72
2022/03/01 00:48:59;;;;;;;18.40;14.57;;;20.30;47.40;;;;;;4971680;28;20050;-72
2022/03/01 00:51:26;;;;;;;17.38;13.63;;;20.30;47.40;;;;;;4971542;28;20477;-72
2022/03/01 00:53:53;;;;;;;18.75;14.70;;;20.30;47.30;;;;;;4971190;28;20104;-72
2022/03/01 00:56:19;;;;;;;18.27;14.30;;;20.30;47.50;;;;;;5003583;28;20058;-72
2022/03/01 00:58:45;;;;;;;19.48;15.30;;;20.30;47.40;;;;;;4972130;28;20081;-72
2022/03/01 01:01:10;;;;;;;18.75;14.52;;;20.30;47.40;;;;;;4971236;28;20488;-72
2022/03/01 01:03:36;;;;;;;18.92;15.20;;;20.30;47.50;;;;;;4970832;28;20035;-72
2022/03/01 01:06:02;;;;;;;19.45;14.73;;;20.20;47.30;;;;;;4972225;28;20109;-72
2022/03/01 01:08:28;;;;;;;18.42;14.13;;;20.30;47.40;;;;;;4970828;28;20106;-72
2022/03/01 01:10:54;;;;;;;18.52;13.65;;;20.20;47.30;;;;;;4986275;28;20403;-72
2022/03/01 01:13:19;;;;;;;18.45;14.27;;;20.20;47.40;;;;;;4972085;28;20035;-72
2022/03/01 01:15:45;;;;;;;18.73;13.93;;;20.20;47.40;;;;;;4971990;28;20031;-72
2022/03/01 01:18:12;;;;;;;18.35;14.40;;;20.30;47.50;;;;;;4971909;28;20490;-72
2022/03/01 01:20:37;;;;;;;18.63;13.90;;;20.20;47.40;;;;;;4969974;28;20023;-72
2022/03/01 01:23:04;;;;;;;18.58;13.70;;;20.20;47.30;;;;;;4971933;28;20033;-72
2022/03/01 01:25:30;;;;;;;17.88;13.75;;;20.20;47.40;;;;;;4971876;28;20027;-72
2022/03/01 01:27:58;;;;;;;17.38;13.27;;;20.30;47.30;;;;;;4971246;28;20396;-72
2022/03/01 01:30:26;;;;;;;18.15;13.45;;;20.30;47.40;;;;;;4974639;28;20484;-72
2022/03/01 01:32:53;;;;;;;17.45;12.80;;;20.20;47.30;;;;;;4974407;28;20077;-73
2022/03/01 01:35:20;;;;;;;17.92;13.55;;;20.20;47.20;;;;;;4975239;28;20066;-73
2022/03/01 01:37:47;;;;;;;17.75;12.75;;;20.20;47.80;;;;;;4974139;28;20030;-72
2022/03/01 01:40:15;;;;;;;18.02;13.65;;;20.20;47.20;;;;;;4974609;28;20468;-72
2022/03/01 01:42:41;;;;;;;17.70;13.30;;;20.20;47.30;;;;;;4975586;28;20031;-72
2022/03/01 01:45:08;;;;;;;18.45;12.90;;;20.30;47.10;;;;;;4975009;28;20491;-72
2022/03/01 01:47:34;;;;;;;17.25;12.93;;;20.30;47.20;;;;;;4974890;28;20096;-72
2022/03/01 01:50:00;;;;;;;16.50;12.65;;;20.20;47.30;;;;;;4973139;28;20129;-72
2022/03/01 01:52:27;;;;;;;17.02;12.38;;;20.20;47.30;;;;;;4975058;28;20027;-72
2022/03/01 01:54:54;;;;;;;17.13;12.50;;;20.20;47.30;;;;;;4974952;28;20026;-72
2022/03/01 01:57:22;;;;;;;16.20;12.07;;;20.20;47.30;;;;;;4973795;28;20479;-72
2022/03/01 01:59:49;;;;;;;16.00;11.82;;;20.20;47.30;;;;;;4988846;28;20031;-72
2022/03/01 02:02:19;;;;;;;17.58;12.90;;;20.20;47.10;;;;;;4974878;28;20131;-72
2022/03/01 02:04:45;;;;;;;15.63;11.82;;;20.20;47.20;;;;;;4973549;28;20507;-72
2022/03/01 02:07:12;;;;;;;16.10;12.05;;;20.20;47.00;;;;;;4973603;28;20031;-72
2022/03/01 02:09:38;;;;;;;16.40;11.85;;;20.30;47.00;;;;;;4972555;28;20535;-72
2022/03/01 02:12:05;;;;;;;15.98;12.00;;;20.30;47.20;;;;;;4973634;28;20109;-72
2022/03/01 02:14:32;;;;;;;16.38;11.70;;;20.20;47.10;;;;;;4973403;28;20395;-72
2022/03/01 02:17:00;;;;;;;15.73;12.02;;;20.20;47.00;;;;;;4974658;28;20026;-72
2022/03/01 02:19:26;;;;;;;17.35;12.23;;;20.30;47.10;;;;;;4974112;28;20436;-72
2022/03/01 02:21:55;;;;;;;17.38;12.52;;;20.20;47.10;;;;;;4974932;28;20464;-73
2022/03/01 02:24:22;;;;;;;14.88;10.80;;;20.20;47.00;;;;;;4973339;28;20105;-73
2022/03/01 02:26:48;;;;;;;16.27;11.52;;;20.20;47.10;;;;;;4974654;28;20051;-72
2022/03/01 02:29:14;;;;;;;17.40;12.05;;;20.20;47.00;;;;;;4972997;28;20524;-72
2022/03/01 02:31:40;;;;;;;17.15;11.88;;;20.20;47.10;;;;;;4973628;28;20109;-73
2022/03/01 02:34:06;;;;;;;14.75;11.25;;;20.20;46.90;;;;;;4974339;28;20110;-72
2022/03/01 02:36:32;;;;;;;16.38;11.93;;;20.30;46.90;;;;;;4973072;28;20480;-73
2022/03/01 02:38:58;;;;;;;17.77;12.20;;;20.30;46.80;;;;;;4974123;28;20039;-72
2022/03/01 02:41:25;;;;;;;15.25;11.02;;;20.30;46.80;;;;;;4972794;28;20122;-72
2022/03/01 02:43:52;;;;;;;17.33;11.63;;;20.30;47.00;;;;;;4974092;28;20451;-72
2022/03/01 02:46:17;;;;;;;16.45;11.77;;;20.20;46.90;;;;;;4974175;28;20105;-72
2022/03/01 02:48:43;;;;;;;15.68;11.75;;;20.30;47.00;;;;;;4982359;23;20055;-72
2022/03/01 02:51:09;;;;;;;15.77;10.95;;;20.30;47.10;;;;;;4970955;28;20149;-72
2022/03/01 02:53:36;;;;;;;15.80;11.52;;;20.20;46.90;;;;;;4988269;28;20030;-72
2022/03/01 02:56:03;;;;;;;14.52;10.80;;;20.30;47.00;;;;;;4972809;28;20039;-72
2022/03/01 02:58:28;;;;;;;14.82;10.75;;;20.20;46.80;;;;;;4988177;28;20031;-72
2022/03/01 03:00:54;;;;;;;15.13;11.18;;;20.20;47.00;;;;;;4971969;28;20366;-72
2022/03/01 03:03:20;;;;;;;15.60;11.02;;;20.20;47.00;;;;;;4973830;28;20107;-72
2022/03/01 03:05:46;;;;;;;15.52;10.93;;;20.20;47.00;;;;;;4973590;28;20034;-71
2022/03/01 03:08:11;;;;;;;14.68;11.10;;;20.20;46.90;;;;;;4973538;28;20023;-72
2022/03/01 03:10:37;;;;;;;15.35;10.98;;;20.20;47.00;;;;;;4987854;28;20165;-72
2022/03/01 03:13:04;;;;;;;15.80;11.18;;;20.20;47.00;;;;;;4972415;28;20049;-72
2022/03/01 03:15:31;;;;;;;14.00;10.32;;;20.20;46.90;;;;;;4972375;28;20109;-72
2022/03/01 03:17:57;;;;;;;14.82;10.80;;;20.20;46.90;;;;;;4973203;28;20114;-72
2022/03/01 03:20:24;;;;;;;14.95;10.30;;;20.20;47.00;;;;;;4972082;28;20027;-72
2022/03/01 03:22:50;;;;;;;14.70;10.50;;;20.20;46.80;;;;;;4973488;28;20019;-72
2022/03/01 03:25:15;;;;;;;14.32;10.90;;;20.20;46.90;;;;;;4973378;28;20030;-72
2022/03/01 03:27:42;;;;;;;16.02;10.55;;;20.20;47.00;;;;;;4956082;28;20031;-72
2022/03/01 03:30:09;;;;;;;14.73;10.93;;;20.20;46.90;;;;;;4972315;28;20073;-72
2022/03/01 03:32:35;;;;;;;14.15;10.55;;;20.20;46.90;;;;;;4972125;28;20130;-72
2022/03/01 03:35:01;;;;;;;15.27;10.43;;;20.20;47.00;;;;;;4971654;28;20118;-72
2022/03/01 03:37:27;;;;;;;14.40;10.02;;;20.20;46.90;;;;;;4971859;28;20085;-72
2022/03/01 03:39:53;;;;;;;15.30;10.23;;;20.20;46.80;;;;;;4972077;28;20266;-72
2022/03/01 03:42:19;;;;;;;14.15;9.85;;;20.20;46.90;;;;;;4973106;28;20027;-72
2022/03/01 03:44:45;;;;;;;15.50;10.43;;;20.20;46.70;;;;;;4973074;28;20064;-72
2022/03/01 03:47:11;;;;;;;14.77;9.95;;;20.20;46.70;;;;;;4972679;28;20084;-72
2022/03/01 03:49:37;;;;;;;12.98;9.73;;;20.20;46.70;;;;;;4971882;28;20404;-72
2022/03/01 03:52:05;;;;;;;14.23;10.02;;;20.20;46.70;;;;;;4954897;28;20031;-72
2022/03/01 03:54:31;;;;;;;15.00;10.10;;;20.20;46.80;;;;;;4971738;28;20034;-72
2022/03/01 03:56:56;;;;;;;15.07;10.38;;;20.20;46.70;;;;;;4972754;28;20443;-72
2022/03/01 03:59:22;;;;;;;14.45;9.93;;;20.20;46.70;;;;;;4971903;28;20022;-72
2022/03/01 04:01:48;;;;;;;13.43;9.13;;;20.10;46.70;;;;;;4972629;28;20037;-72
2022/03/01 04:04:14;;;;;;;14.00;9.68;;;20.10;46.70;;;;;;4971461;28;20035;-72
2022/03/01 04:06:39;;;;;;;13.85;9.80;;;20.20;46.70;;;;;;4972962;28;20027;-72
2022/03/01 04:09:06;;;;;;;14.98;9.68;;;20.20;46.80;;;;;;4972403;28;20454;-72
2022/03/01 04:11:33;;;;;;;12.80;9.40;;;20.20;46.90;;;;;;4986367;28;20034;-72
2022/03/01 04:13:59;;;;;;;14.93;10.43;;;20.20;47.30;;;;;;4971578;28;20034;-72
2022/03/01 04:16:27;;;;;;;14.90;9.43;;;20.20;46.80;;;;;;4972535;28;20484;-72
2022/03/01 04:18:54;;;;;;;14.10;9.68;;;20.20;46.70;;;;;;4987240;28;20175;-72
2022/03/01 04:21:20;;;;;;;13.10;9.50;;;20.20;46.80;;;;;;4954487;28;20031;-72
2022/03/01 04:23:46;;;;;;;13.68;9.88;;;20.20;47.00;;;;;;4972522;28;20109;-72
2022/03/01 04:26:13;;;;;;;14.20;8.93;;;20.20;46.80;;;;;;4972602;28;20038;-72
2022/03/01 04:28:38;;;;;;;13.25;9.38;;;20.20;47.00;;;;;;4972328;28;20031;-72
2022/03/01 04:31:04;;;;;;;14.20;9.38;;;20.20;46.80;;;;;;4971387;28;20107;-72
2022/03/01 04:33:30;;;;;;;13.60;9.10;;;20.10;46.70;;;;;;4972239;28;20372;-72
2022/03/01 04:35:59;;;;;;;12.55;8.60;;;20.20;46.70;;;;;;4972242;28;20085;-72
2022/03/01 04:38:25;;;;;;;13.20;9.23;;;20.20;46.70;;;;;;4972409;28;20031;-71
2022/03/01 04:40:52;;;;;;;11.73;8.40;;;20.20;46.70;;;;;;4971473;28;20030;-72
2022/03/01 04:43:19;;;;;;;13.85;9.50;;;20.10;46.60;;;;;;4987383;28;20125;-72
2022/03/01 04:45:45;;;;;;;13.80;9.25;;;20.20;46.50;;;;;;4987073;28;20027;-72
2022/03/01 04:48:11;;;;;;;13.68;9.27;;;20.20;46.70;;;;;;4971124;28;20043;-71
2022/03/01 04:50:37;;;;;;;12.98;9.25;;;20.20;46.50;;;;;;4970065;28;20038;-71
2022/03/01 04:53:04;;;;;;;12.02;8.75;;;20.10;46.60;;;;;;4987064;28;20347;-72
2022/03/01 04:55:29;;;;;;;12.70;8.75;;;20.20;46.70;;;;;;4971892;28;20097;-71
2022/03/01 04:57:55;;;;;;;13.20;9.10;;;20.10;46.60;;;;;;4971963;28;20030;-72
2022/03/01 05:00:21;;;;;;;13.18;8.80;;;20.10;46.60;;;;;;4970111;28;20039;-71
2022/03/01 05:02:47;;;;;;;12.70;8.90;;;20.10;46.60;;;;;;4972530;28;20026;-71
2022/03/01 05:05:14;;;;;;;13.35;9.20;;;20.20;46.70;;;;;;4976019;28;20110;-71
2022/03/01 05:07:44;;;;;;;13.13;9.00;;;20.10;46.60;;;;;;4975812;28;20022;-72
2022/03/01 05:10:11;;;;;;;12.95;9.30;;;20.10;46.80;;;;;;4989970;28;20043;-72
2022/03/01 05:12:58;;;;;;;12.13;8.52;;;20.10;46.60;;;;;;4990581;28;20503;-72
2022/03/01 05:15:26;;;;;;;12.77;8.50;;;20.10;46.70;;;;;;4975866;28;20081;-72
2022/03/01 05:17:53;;;;;;;12.52;8.80;;;20.10;46.60;;;;;;4974475;28;20046;-71
2022/03/01 05:20:20;;;;;;;14.63;8.82;;;20.10;46.60;;;;;;4957749;28;20045;-72
2022/03/01 05:22:47;;;;;;;12.68;8.23;;;20.20;46.70;;;;;;4974388;28;20027;-71
2022/03/01 05:25:16;;;;;;;13.15;9.00;;;20.10;46.50;;;;;;4975448;28;20109;-71
2022/03/01 05:27:43;;;;;;;13.68;8.18;;;20.10;46.40;;;;;;4974117;28;20023;-72
2022/03/01 05:30:11;;;;;;;13.63;8.60;;;20.10;46.70;;;;;;4973601;28;20178;-72
2022/03/01 05:32:39;;;;;;;10.75;7.75;;;20.10;46.60;;;;;;4974570;28;20049;-72
2022/03/01 05:35:09;;;;;;;13.30;8.68;;;20.20;46.70;;;;;;4975522;28;20034;-72
2022/03/01 05:37:35;;;;;;;;;;;20.10;46.50;;;;;;4975682;28;20089;-72
2022/03/01 05:40:02;;;;;;;12.07;8.25;;;20.10;46.60;;;;;;4974410;28;19925;-71
2022/03/01 05:42:27;;;;;;;12.32;8.63;;;20.20;46.50;;;;;;4973979;28;20023;-72
2022/03/01 05:44:55;;;;;;;12.77;8.30;;;20.10;46.60;;;;;;4975124;28;20027;-72
2022/03/01 05:47:21;;;;;;;12.68;8.48;;;20.10;46.60;;;;;;4973603;28;20031;-72
2022/03/01 05:49:47;;;;;;;11.13;7.75;;;20.10;46.60;;;;;;4974417;28;20462;-73
2022/03/01 05:52:13;;;;;;;11.70;8.25;;;20.10;46.60;;;;;;4989923;28;20034;-73
2022/03/01 05:54:38;;;;;;;13.48;8.85;;;20.10;46.60;;;;;;4974088;28;20041;-73
2022/03/01 05:57:04;;;;;;;13.20;8.55;;;20.10;46.60;;;;;;4973906;28;20567;-73
2022/03/01 05:59:30;;;;;;;12.02;8.32;;;20.10;46.50;;;;;;4974189;28;20037;-73
2022/03/01 06:01:56;;;;;;;12.52;8.15;;;20.20;46.50;;;;;;4989993;28;20031;-73
2022/03/01 06:04:21;;;;;;;10.93;7.72;;;20.10;46.20;;;;;;4975095;28;20586;-73
2022/03/01 06:06:47;;;;;;;11.63;7.80;;;20.10;46.40;;;;;;4974818;28;20058;-73
2022/03/01 06:09:13;;;;;;;11.45;7.97;;;20.10;46.30;;;;;;4974587;28;20031;-73
2022/03/01 06:11:38;;;;;;;11.50;7.97;;;20.10;46.30;;;;;;4988861;28;20018;-74
2022/03/01 06:14:05;;;;;;;11.15;7.78;;;20.10;46.40;;;;;;4974379;28;20077;-73
2022/03/01 06:16:31;;;;;;;12.80;7.82;;;20.10;46.30;;;;;;4974104;28;20130;-74
2022/03/01 06:18:56;;;;;;;12.68;8.57;;;20.10;46.40;;;;;;4974483;28;20547;-73
2022/03/01 06:21:22;;;;;;;12.95;8.50;;;20.10;46.20;;;;;;4972411;28;20031;-74
2022/03/01 06:23:48;;;;;;;11.70;7.95;;;20.10;46.30;;;;;;4973245;28;20030;-74
2022/03/01 06:26:15;;;;;;;11.52;8.02;;;20.10;46.40;;;;;;4973136;28;20158;-74
2022/03/01 06:28:41;;;;;;;12.40;8.27;;;20.10;46.40;;;;;;4974648;28;20022;-74
2022/03/01 06:31:06;;;;;;;12.57;7.75;;;20.10;46.30;;;;;;4956215;28;20042;-74
2022/03/01 06:33:32;;;;;;;11.07;7.78;;;20.10;46.20;;;;;;4973222;28;20031;-74
2022/03/01 06:35:58;;;;;;;12.25;7.93;;;20.10;46.30;;;;;;4973187;28;20458;-74
2022/03/01 06:38:23;;;;;;;12.18;8.13;;;20.10;46.30;;;;;;4988950;28;20037;-73
2022/03/01 06:40:52;;;;;;;10.98;7.72;;;20.10;46.40;;;;;;4973246;28;20027;-73
2022/03/01 06:43:18;;;;;;;12.35;8.23;;;20.10;46.30;;;;;;4972914;28;20050;-74
2022/03/01 06:45:46;;;;;;;11.63;7.65;;;20.10;46.30;;;;;;4972868;28;20027;-74
2022/03/01 06:48:12;;;;;;;13.15;8.70;;;20.10;46.30;;;;;;4972435;28;20491;-74
2022/03/01 06:50:37;;;;;;;11.38;7.60;;;20.10;46.20;;;;;;4972037;28;20126;-73
2022/03/01 06:53:06;;;;;;;13.40;7.88;;;20.10;46.40;;;;;;4972031;28;20396;-74
2022/03/01 06:55:32;;;;;;;11.70;7.55;;;20.10;46.20;;;;;;4973859;28;20027;-73
2022/03/01 06:57:59;;;;;;;10.68;7.22;;;20.10;46.30;;;;;;4988605;28;20126;-73
2022/03/01 07:00:25;;;;;;;11.85;7.57;;;20.10;46.40;;;;;;4988144;28;20023;-74
2022/03/01 07:02:51;;;;;;;11.35;7.50;;;20.10;46.30;;;;;;4973704;28;20027;-73
2022/03/01 07:05:17;;;;;;;10.63;7.55;;;20.10;46.10;;;;;;4972607;28;20472;-73
2022/03/01 07:07:44;;;;;;;11.63;7.68;;;20.10;46.30;;;;;;4972337;28;20039;-73
2022/03/01 07:10:12;;;;;;;12.05;7.93;;;20.10;46.20;;;;;;4971842;28;20055;-73
2022/03/01 07:12:40;;;;;;;11.55;7.60;;;20.10;46.30;;;;;;4973725;28;20427;-73
2022/03/01 07:15:07;;;;;;;12.07;7.63;;;20.10;46.10;;;;;;4972184;28;20419;-73
2022/03/01 07:17:32;;;;;;;11.73;7.57;;;20.10;46.10;;;;;;4973458;28;20061;-73
2022/03/01 07:19:58;;;;;;;10.73;6.90;;;20.10;46.10;;;;;;4972559;28;20073;-73
2022/03/01 07:22:25;;;;;;;11.18;7.05;;;20.20;46.10;;;;;;4973276;28;20074;-73
2022/03/01 07:24:50;;;;;;;10.55;7.22;;;20.20;45.90;;;;;;4973287;28;20039;-73
2022/03/01 07:27:16;;;;;;;11.05;7.13;;;20.20;45.80;;;;;;4972827;28;20069;-73
2022/03/01 07:29:42;;;;;;;11.50;7.25;;;20.20;45.90;;;;;;4972696;28;20062;-73
2022/03/01 07:32:09;;;;;;;12.52;7.72;;;20.20;45.70;;;;;;4972035;28;20027;-73
2022/03/01 07:34:35;;;;;;;11.63;7.13;;;20.20;45.60;;;;;;4973069;28;20396;-72
2022/03/01 07:37:02;;;;;;;11.30;7.38;;;20.20;45.70;;;;;;4972974;28;20123;-72
2022/03/01 07:39:28;;;;;;;11.65;7.63;;;20.20;45.80;;;;;;4972033;28;20043;-73
2022/03/01 07:41:54;;;;;;;11.23;7.07;;;20.20;45.80;;;;;;4955844;28;20503;-73
2022/03/01 07:44:23;;;;;;;12.65;7.60;;;20.20;45.80;;;;;;4987941;28;20030;-73
2022/03/01 07:46:49;;;;;;;19.90;11.07;;;20.20;45.90;;;;;;4972795;28;20037;-73
2022/03/01 07:49:24;;;;;;;12.63;8.75;;;20.20;46.70;;;;;;4971348;28;20027;-73
2022/03/01 07:51:52;;;;;;;14.88;9.63;;;20.20;46.10;;;;;;4973006;28;20031;-75
2022/03/01 07:54:18;;;;;;;15.07;8.45;;;20.20;45.90;;;;;;4972704;28;20046;-75
2022/03/01 07:56:43;;;;;;;18.23;9.70;;;20.30;49.00;;;;;;4972585;28;20043;-75
2022/03/01 07:59:09;;;;;;;19.50;10.75;;;20.30;46.70;;;;;;4971581;28;20031;-74
2022/03/01 08:01:35;;;;;;;17.80;9.30;;;20.30;47.00;;;;;;4971351;28;20030;-74
2022/03/01 08:04:01;;;;;;;13.40;8.35;;;20.30;46.10;;;;;;4972850;28;20037;-74
2022/03/01 08:06:26;;;;;;;14.55;8.88;;;20.20;45.60;;;;;;4972979;28;20027;-74
2022/03/01 08:08:52;;;;;;;20.52;9.02;;;20.20;46.00;;;;;;4972373;28;20437;-74
2022/03/01 08:11:18;;;;;;;22.38;8.93;;;20.20;45.90;;;;;;4971870;28;20110;-74
2022/03/01 08:13:44;;;;;;;18.17;8.65;;;20.20;45.80;;;;;;4971429;28;20454;-74
2022/03/01 08:16:10;;;;;;;15.10;9.13;;;20.20;46.00;;;;;;4972642;28;20081;-74
2022/03/01 08:18:35;;;;;;;15.25;8.40;;;20.20;46.40;;;;;;4972281;28;20027;-74
2022/03/01 08:21:02;;;;;;;13.93;8.35;;;20.30;45.80;;;;;;4971620;28;20019;-74
2022/03/01 08:23:27;;;;;;;14.77;8.30;;;20.30;45.60;;;;;;4970989;28;20030;-74
2022/03/01 08:25:53;;;;;;;14.00;8.13;;;20.30;45.30;;;;;;4972335;28;20027;-74
2022/03/01 08:28:19;;;;;;;12.70;7.78;;;20.30;45.10;;;;;;4987210;28;20027;-74
2022/03/01 08:30:46;;;;;;;12.48;7.10;;;20.30;45.10;;;;;;4970166;28;20034;-74
2022/03/01 08:33:15;;;;;;;12.20;7.05;;;20.30;45.00;;;;;;4971300;28;20027;-74
2022/03/01 08:35:41;;;;;;;12.27;7.80;;;20.30;44.70;;;;;;4972573;28;20042;-74
2022/03/01 08:38:06;;;;;;;16.35;7.97;;;20.30;44.60;;;;;;4973101;28;20027;-74
2022/03/01 08:40:34;;;;;;;13.25;7.68;;;20.30;44.60;;;;;;4975650;28;20019;-74
2022/03/01 08:43:00;;;;;;;13.02;7.80;;;20.30;44.20;;;;;;4976372;28;20388;-74
2022/03/01 08:45:26;;;;;;;16.13;7.95;;;20.30;43.90;;;;;;4976480;28;20023;-74
2022/03/01 08:47:53;;;;;;;12.35;7.32;;;20.30;43.80;;;;;;4993658;23;20129;-71
2022/03/01 08:50:18;;;;;;;14.07;7.38;;;20.30;43.50;;;;;;4993262;28;20109;-71
2022/03/01 08:52:44;;;;;;;13.18;7.75;;;20.30;43.20;;;;;;4995773;28;20101;-71
2022/03/01 08:55:10;;;;;;;12.35;6.97;;;20.30;43.00;;;;;;4994257;28;20035;-71
2022/03/01 08:57:37;;;;;;;14.07;7.70;;;20.30;42.70;;;;;;4994749;28;20037;-71
2022/03/01 09:00:06;;;;;;;15.88;7.22;;;20.30;42.50;;;;;;4993237;28;20037;-72
2022/03/01 09:02:32;;;;;;;15.63;7.47;;;20.40;42.40;;;;;;4995481;28;20113;-72
2022/03/01 09:04:57;;;;;;;15.35;7.25;;;20.40;42.50;;;;;;4995577;28;20349;-73
2022/03/01 09:07:24;;;;;;;11.93;6.53;;;20.50;42.40;;;;;;4994430;28;20077;-71
2022/03/01 09:09:50;;;;;;;12.35;7.57;;;20.60;42.50;;;;;;4994526;28;20107;-71
2022/03/01 09:12:16;;;;;;;14.15;7.20;;;20.70;42.40;;;;;;4994201;28;20037;-71
2022/03/01 09:14:42;;;;;;;14.13;6.75;;;20.70;42.40;;;;;;4994226;28;20177;-71
2022/03/01 09:17:07;;;;;;;11.52;6.70;;;20.70;42.40;;;;;;4995261;28;20534;-71
2022/03/01 09:19:33;;;;;;;16.60;7.22;;;20.80;42.90;;;;;;4994250;28;20044;-71
2022/03/01 09:21:59;;;;;;;14.25;6.88;;;20.80;42.70;;;;;;4995230;28;20030;-70
2022/03/01 09:24:24;;;;;;;15.35;6.65;;;20.90;42.80;;;;;;4993825;28;20030;-70
2022/03/01 09:26:50;;;;;;;13.43;6.70;;;21.00;43.90;;;;;;4994058;28;20041;-71
2022/03/01 09:29:16;;;;;;;12.70;6.78;;;21.10;44.00;;;;;;4991548;28;20502;-70
2022/03/01 09:31:42;;;;;;;14.88;7.07;;;21.20;44.00;;;;;;4994116;28;20472;-71
2022/03/01 09:34:07;;;;;;;10.55;6.25;;;21.20;43.90;;;;;;4994573;28;20030;-71
2022/03/01 09:36:33;;;;;;;14.30;6.93;;;21.20;44.30;;;;;;4993502;28;20038;-72
2022/03/01 09:38:59;;;;;;;15.77;6.95;;;21.30;44.50;;;;;;4992933;28;20064;-72
2022/03/01 09:41:25;;;;;;;13.80;6.57;;;21.30;44.30;;;;;;4993424;28;20105;-72
2022/03/01 09:43:54;;;;;;;15.25;6.68;;;21.30;44.50;;;;;;4994956;28;20030;-72
2022/03/01 09:46:20;;;;;;;13.40;6.90;;;21.30;44.60;;;;;;4993438;28;20036;-73
2022/03/01 09:48:46;;;;;;;11.65;6.35;;;21.30;44.80;;;;;;4993337;28;20034;-72
2022/03/01 09:51:13;;;;;;;12.82;6.47;;;21.30;44.90;;;;;;4993622;28;20026;-73
2022/03/01 09:53:41;;;;;;;14.40;6.50;;;21.30;45.00;;;;;;4994628;28;20089;-73
2022/03/01 09:56:08;;;;;;;13.25;6.50;;;21.30;45.10;;;;;;4993358;28;20487;-71
2022/03/01 09:58:35;;;;;;;12.85;6.35;;;21.30;45.10;;;;;;4994321;28;20469;-71
2022/03/01 10:01:01;;;;;;;15.20;6.97;;;21.30;45.20;;;;;;4993562;28;20479;-71
2022/03/01 10:03:27;;;;;;;11.88;6.53;;;21.30;45.20;;;;;;4994360;28;20030;-72
2022/03/01 10:05:53;;;;;;;13.32;6.55;;;21.40;45.30;;;;;;4994243;28;20026;-72
2022/03/01 10:08:21;;;;;;;11.45;6.10;;;21.30;45.30;;;;;;4994235;28;20037;-72
2022/03/01 10:10:50;;;;;;;13.70;6.28;;;21.40;45.30;;;;;;4993394;28;20022;-72
2022/03/01 10:13:30;;;;;;;14.07;6.63;;;21.40;45.40;;;;;;4993041;28;20053;-72
2022/03/01 10:16:06;;;;;;;16.67;6.82;;;21.40;45.40;;;;;;4994304;28;20030;-72
2022/03/01 10:18:36;;;;;;;10.82;6.18;;;21.40;45.40;;;;;;4993927;28;20038;-72
2022/03/01 10:21:16;;;;;;;13.05;6.45;;;21.40;45.40;;;;;;4993062;28;20026;-71
2022/03/01 10:23:56;;;;;;;11.50;5.85;;;21.40;45.50;;;;;;4993942;28;20498;-71
2022/03/01 10:26:26;;;;;;;11.95;5.82;;;21.40;45.50;;;;;;4992695;28;20034;-72
2022/03/01 10:28:54;;;;;;;11.70;6.07;;;21.40;45.60;;;;;;4992540;28;20483;-78
2022/03/01 10:31:26;;;;;;;18.42;9.35;;;21.40;45.50;;;;;;4993068;28;20277;-72
2022/03/01 10:33:58;;;;;;;16.23;9.82;;;21.20;45.30;;;;;;4992671;28;20034;-72
2022/03/01 10:36:26;;;;;;;25.52;16.80;;;21.10;44.00;;;;;;4988920;28;20117;-72
2022/03/01 10:39:16;;;;;;;31.58;19.33;;;21.10;41.20;;;;;;4992470;28;20128;-72
2022/03/01 10:41:44;;;;;;;29.52;16.55;;;21.20;40.00;;;;;;4993214;28;20097;-70
2022/03/01 10:44:16;;;;;;;30.25;17.70;;;21.20;40.00;;;;;;4992919;28;20034;-71
2022/03/01 10:46:46;;;;;;;26.35;17.50;;;21.20;40.50;;;;;;4977196;28;20030;-72
2022/03/01 10:49:20;;;;;;;27.13;17.05;;;21.30;40.90;;;;;;4977353;28;20100;-72
2022/03/01 10:51:55;;;;;;;26.25;17.05;;;21.30;40.90;;;;;;4977133;28;20041;-72
2022/03/01 10:54:25;;;;;;;25.30;16.42;;;21.30;41.00;;;;;;4976725;28;20415;-73
2022/03/01 10:56:51;;;;;;;24.92;16.67;;;21.30;41.80;;;;;;4993545;28;20074;-73
2022/03/01 10:59:18;;;;;;;22.88;16.52;;;21.30;41.40;;;;;;4993171;28;20442;-71
2022/03/01 11:01:43;;;;;;;25.58;16.45;;;21.40;41.70;;;;;;4992226;28;20391;-72
2022/03/01 11:04:09;;;;;;;24.42;15.75;;;21.40;41.90;;;;;;4992242;28;20026;-71
2022/03/01 11:06:37;;;;;;;26.58;16.20;;;21.40;42.00;;;;;;4992060;28;20065;-72
2022/03/01 11:09:02;;;;;;;24.75;16.63;;;21.40;42.10;;;;;;4975684;28;20403;-71
2022/03/01 11:11:37;;;;;;;27.35;16.50;;;21.40;42.30;;;;;;4992313;28;20022;-73
2022/03/01 11:14:04;;;;;;;26.27;14.68;;;21.40;42.50;;;;;;4992154;28;20041;-73
2022/03/01 11:16:43;;;;;;;24.70;14.85;;;21.40;42.60;;;;;;4992305;28;20077;-72
2022/03/01 11:19:49;;;;;;;24.00;14.68;;;21.40;42.80;;;;;;4991671;28;20034;-72
2022/03/01 11:22:57;;;;;;;23.70;14.63;;;21.40;42.90;;;;;;4992585;28;20027;-74
2022/03/01 11:25:29;;;;;;;22.33;14.52;;;21.40;43.00;;;;;;4949940;28;20038;-72
2022/03/01 11:28:05;;;;;;;21.88;14.50;;;21.40;43.10;;;;;;4993983;28;20082;-73
2022/03/01 11:30:44;;;;;;;24.17;15.32;;;21.40;43.20;;;;;;4991581;28;20037;-72
2022/03/01 11:33:10;;;;;;;21.05;13.52;;;21.50;43.50;;;;;;4992784;28;20448;-73
2022/03/01 11:35:43;;;;;;;24.30;14.80;;;21.50;43.40;;;;;;4991601;28;20426;-73
2022/03/01 11:38:12;;;;;;;22.90;13.60;;;21.50;43.50;;;;;;4992348;28;20026;-70
2022/03/01 11:40:46;;;;;;;21.50;13.60;;;21.50;43.50;;;;;;4992116;28;20037;-72
2022/03/01 11:43:14;;;;;;;22.92;14.43;;;21.50;43.60;;;;;;4992602;28;20029;-72
2022/03/01 11:45:45;;;;;;;22.83;13.73;;;21.50;43.60;;;;;;4992901;28;20027;-72
2022/03/01 11:48:17;;;;;;;20.77;13.65;;;21.50;43.70;;;;;;4992532;28;20030;-72
2022/03/01 11:50:44;;;;;;;26.27;13.32;;;21.50;43.80;;;;;;4991805;28;20022;-72
2022/03/01 11:53:14;;;;;;;24.23;13.93;;;21.50;44.00;;;;;;4991224;28;20483;-72
2022/03/01 11:55:42;;;;;;;25.73;14.05;;;21.50;43.90;;;;;;4975177;28;20097;-72
2022/03/01 11:58:10;;;;;;;23.70;13.18;;;21.50;44.10;;;;;;4992252;28;20026;-72
2022/03/01 12:00:39;;;;;;;22.02;13.68;;;21.40;44.10;;;;;;4991739;28;20435;-72
2022/03/01 12:03:09;;;;;;;18.73;12.38;;;21.40;44.10;;;;;;4991043;28;20026;-72
2022/03/01 12:05:36;;;;;;;;;;;21.40;44.10;;;;;;4993159;28;20018;-72
2022/03/01 12:08:06;;;;;;;20.65;13.50;;;21.40;44.20;;;;;;4959044;28;20429;-72
2022/03/01 12:10:32;;;;;;;21.30;12.23;;;21.50;44.30;;;;;;4990582;28;20399;-73
2022/03/01 12:12:58;;;;;;;22.33;12.85;;;21.50;44.30;;;;;;4990235;28;20037;-72
2022/03/01 12:15:32;;;;;;;20.02;12.43;;;21.50;44.50;;;;;;4991368;28;20446;-72
2022/03/01 12:18:13;;;;;;;19.98;12.57;;;21.50;44.50;;;;;;4974649;28;20034;-72
2022/03/01 12:20:41;;;;;;;19.85;12.10;;;21.50;44.60;;;;;;4991351;28;20034;-72
2022/03/01 12:23:07;;;;;;;20.15;11.52;;;21.50;44.60;;;;;;4990742;28;20035;-72
2022/03/01 12:25:35;;;;;;;19.20;12.27;;;21.50;44.60;;;;;;4974947;28;20022;-72
2022/03/01 12:28:02;;;;;;;17.88;11.75;;;21.50;44.70;;;;;;4990894;28;20034;-72
2022/03/01 12:30:28;;;;;;;19.17;11.38;;;21.50;44.70;;;;;;4991171;28;20121;-72
2022/03/01 12:32:58;;;;;;;17.20;11.45;;;21.50;44.70;;;;;;4974464;28;20165;-72